createdAt,value
2022-09-30T00:02:17.144Z,10.66
2022-09-30T00:04:50.001Z,10.64
2022-09-30T00:07:19.790Z,10.55
2022-09-30T00:09:49.504Z,10.55
2022-09-30T00:12:19.277Z,10.58
2022-09-30T00:14:49.175Z,10.53
2022-09-30T00:17:19.001Z,10.59
2022-09-30T00:19:51.373Z,10.62
2022-09-30T00:22:21.117Z,10.49
2022-09-30T00:24:51.064Z,10.47
2022-09-30T00:27:21.146Z,10.35
2022-09-30T00:29:51.065Z,10.47
2022-09-30T00:32:20.864Z,10.44
2022-09-30T00:34:53.220Z,10.52
2022-09-30T00:37:22.987Z,10.43
2022-09-30T00:39:52.800Z,10.32
2022-09-30T00:42:22.703Z,10.27
2022-09-30T00:44:56.072Z,10.53
2022-09-30T00:47:38.323Z,10.58
2022-09-30T00:50:18.128Z,10.54
2022-09-30T00:52:53.284Z,10.57
2022-09-30T00:55:35.812Z,10.57
2022-09-30T00:58:08.460Z,10.53
2022-09-30T01:00:38.391Z,10.50
2022-09-30T01:03:09.490Z,10.38
2022-09-30T01:05:41.930Z,10.50
2022-09-30T01:08:11.910Z,10.40
2022-09-30T01:10:41.674Z,10.37
2022-09-30T01:13:11.444Z,10.29
2022-09-30T01:16:16.002Z,10.31
2022-09-30T01:19:03.465Z,10.32
2022-09-30T01:22:02.040Z,10.29
2022-09-30T01:24:43.371Z,9.85
2022-09-30T01:27:32.162Z,10.03
2022-09-30T01:30:10.318Z,10.10
2022-09-30T01:33:13.303Z,10.10
2022-09-30T01:35:57.773Z,10.09
2022-09-30T01:38:32.202Z,10.03
2022-09-30T01:41:08.997Z,9.72
2022-09-30T01:43:47.703Z,9.95
2022-09-30T01:46:25.939Z,9.97
2022-09-30T01:49:03.976Z,9.88
2022-09-30T01:51:41.104Z,9.65
2022-09-30T01:54:18.700Z,9.76
2022-09-30T01:56:52.923Z,9.71
2022-09-30T01:59:28.131Z,9.79
2022-09-30T02:02:02.186Z,9.71
2022-09-30T02:04:40.399Z,9.83
2022-09-30T02:07:16.954Z,9.81
2022-09-30T02:09:52.872Z,9.81
2022-09-30T02:12:27.908Z,9.85
2022-09-30T02:15:04.442Z,9.71
2022-09-30T02:17:40.623Z,9.69
2022-09-30T02:20:18.352Z,9.75
2022-09-30T02:22:52.604Z,9.65
2022-09-30T02:25:26.127Z,9.66
2022-09-30T02:28:00.558Z,9.48
2022-09-30T02:30:30.947Z,9.52
2022-09-30T02:33:05.878Z,9.52
2022-09-30T02:35:41.651Z,9.55
2022-09-30T02:38:17.508Z,9.57
2022-09-30T02:40:52.939Z,9.64
2022-09-30T02:43:24.376Z,9.49
2022-09-30T02:46:05.557Z,9.53
2022-09-30T02:48:46.149Z,9.22
2022-09-30T02:51:24.532Z,9.51
2022-09-30T02:54:04.510Z,9.42
2022-09-30T02:56:44.601Z,9.52
2022-09-30T02:59:14.803Z,9.38
2022-09-30T03:01:46.021Z,9.40
2022-09-30T03:04:18.991Z,9.45
2022-09-30T03:06:51.523Z,9.56
2022-09-30T03:09:21.652Z,9.51
2022-09-30T03:11:52.483Z,9.52
2022-09-30T03:14:46.609Z,9.47
2022-09-30T03:17:30.021Z,9.35
2022-09-30T03:20:15.339Z,9.45
2022-09-30T03:23:05.791Z,9.47
2022-09-30T03:25:47.333Z,9.26
2022-09-30T03:28:27.775Z,9.41
2022-09-30T03:31:06.703Z,9.40
2022-09-30T03:33:47.211Z,9.40
2022-09-30T03:36:24.031Z,9.41
2022-09-30T03:39:04.676Z,9.16
2022-09-30T03:41:42.258Z,9.45
2022-09-30T03:44:17.544Z,9.47
2022-09-30T03:46:50.961Z,9.43
2022-09-30T03:49:29.462Z,9.33
2022-09-30T03:52:00.227Z,9.36
2022-09-30T03:54:33.387Z,9.32
2022-09-30T03:57:05.315Z,9.25
2022-09-30T03:59:35.052Z,9.30
2022-09-30T04:02:05.424Z,9.36
2022-09-30T04:04:35.234Z,8.88
2022-09-30T04:07:05.038Z,9.26
2022-09-30T04:09:37.461Z,9.25
2022-09-30T04:12:08.391Z,9.07
2022-09-30T04:14:38.687Z,9.22
2022-09-30T04:17:09.199Z,9.15
2022-09-30T04:19:40.411Z,9.06
2022-09-30T04:22:11.062Z,8.98
2022-09-30T04:24:43.813Z,8.89
2022-09-30T04:27:13.535Z,8.93
2022-09-30T04:29:43.264Z,9.00
2022-09-30T04:32:12.995Z,8.89
2022-09-30T04:34:42.740Z,8.80
2022-09-30T04:37:13.880Z,8.79
2022-09-30T04:39:46.608Z,8.85
2022-09-30T04:42:17.414Z,8.91
2022-09-30T04:44:48.184Z,8.96
2022-09-30T04:47:17.905Z,8.96
2022-09-30T04:49:47.616Z,8.87
2022-09-30T04:52:17.325Z,9.03
2022-09-30T04:54:49.619Z,8.98
2022-09-30T04:57:19.294Z,9.14
2022-09-30T04:59:50.065Z,9.14
2022-09-30T05:02:19.984Z,9.11
2022-09-30T05:04:49.822Z,9.06
2022-09-30T05:07:19.538Z,8.94
2022-09-30T05:09:52.210Z,9.08
2022-09-30T05:12:21.970Z,9.03
2022-09-30T05:14:51.696Z,8.75
2022-09-30T05:17:21.404Z,8.99
2022-09-30T05:19:51.242Z,8.94
2022-09-30T05:22:20.975Z,8.95
2022-09-30T05:24:53.314Z,8.93
2022-09-30T05:27:26.613Z,8.95
2022-09-30T05:29:56.305Z,8.91
2022-09-30T05:32:26.066Z,8.94
2022-09-30T05:34:57.168Z,8.93
2022-09-30T05:37:26.936Z,8.96
2022-09-30T05:39:59.333Z,8.99
2022-09-30T05:42:29.168Z,8.95
2022-09-30T05:44:59.002Z,8.93
2022-09-30T05:47:28.824Z,8.88
2022-09-30T05:50:00.715Z,9.08
2022-09-30T05:52:30.802Z,9.09
2022-09-30T05:55:03.692Z,9.13
2022-09-30T05:57:33.536Z,8.93
2022-09-30T06:00:04.909Z,9.08
2022-09-30T06:02:42.222Z,9.01
2022-09-30T06:05:14.816Z,9.05
2022-09-30T06:07:45.649Z,8.72
2022-09-30T06:10:18.101Z,9.19
2022-09-30T06:12:48.263Z,9.26
2022-09-30T06:15:19.181Z,9.21
2022-09-30T06:17:54.314Z,9.30
2022-09-30T06:20:25.650Z,9.42
2022-09-30T06:22:56.418Z,9.28
2022-09-30T06:25:28.754Z,9.45
2022-09-30T06:27:58.881Z,9.36
2022-09-30T06:30:34.903Z,9.44
2022-09-30T06:33:06.346Z,9.57
2022-09-30T06:35:37.183Z,9.59
2022-09-30T06:38:08.012Z,9.42
2022-09-30T06:40:40.705Z,9.69
2022-09-30T06:43:11.538Z,9.50
2022-09-30T06:45:42.419Z,9.77
2022-09-30T06:48:12.753Z,9.79
2022-09-30T06:50:54.450Z,9.82
2022-09-30T06:53:30.219Z,9.87
2022-09-30T06:56:02.654Z,9.95
2022-09-30T06:58:32.415Z,9.89
2022-09-30T07:01:05.392Z,9.93
2022-09-30T07:03:36.587Z,10.04
2022-09-30T07:06:09.013Z,10.11
2022-09-30T07:08:40.134Z,10.16
2022-09-30T07:11:17.189Z,10.27
2022-09-30T07:13:49.280Z,10.30
2022-09-30T07:16:22.726Z,10.42
2022-09-30T07:18:52.590Z,10.32
2022-09-30T07:21:23.374Z,10.25
2022-09-30T07:23:53.338Z,10.48
2022-09-30T07:26:26.721Z,10.57
2022-09-30T07:28:57.296Z,10.57
2022-09-30T07:31:36.609Z,10.64
2022-09-30T07:34:09.743Z,10.72
2022-09-30T07:36:43.853Z,10.77
2022-09-30T07:39:14.655Z,10.80
2022-09-30T07:41:48.054Z,10.60
2022-09-30T07:44:26.234Z,10.99
2022-09-30T07:46:56.078Z,11.08
2022-09-30T07:49:26.952Z,11.15
2022-09-30T07:52:00.013Z,11.26
2022-09-30T07:54:35.310Z,11.34
2022-09-30T07:57:12.205Z,11.44
2022-09-30T07:59:44.233Z,11.52
2022-09-30T08:02:18.487Z,11.56
2022-09-30T08:04:49.909Z,11.57
2022-09-30T08:07:22.882Z,11.80
2022-09-30T08:09:52.757Z,11.95
2022-09-30T08:12:25.122Z,12.16
2022-09-30T08:14:54.895Z,12.25
2022-09-30T08:17:24.630Z,12.20
2022-09-30T08:19:54.342Z,12.11
2022-09-30T08:22:24.102Z,12.15
2022-09-30T08:24:53.884Z,12.18
2022-09-30T08:27:26.276Z,12.24
2022-09-30T08:29:59.196Z,12.24
2022-09-30T08:32:33.204Z,12.29
2022-09-30T08:35:02.980Z,12.33
2022-09-30T08:37:32.794Z,12.46
2022-09-30T08:40:02.892Z,12.56
2022-09-30T08:42:51.709Z,12.74
2022-09-30T08:45:38.887Z,12.84
2022-09-30T08:48:24.505Z,12.48
2022-09-30T08:51:07.559Z,13.00
2022-09-30T08:53:42.751Z,13.14
2022-09-30T08:56:22.106Z,13.16
2022-09-30T08:58:59.771Z,13.26
2022-09-30T09:01:34.907Z,13.37
2022-09-30T09:04:07.268Z,13.49
2022-09-30T09:06:50.409Z,13.60
2022-09-30T09:09:39.402Z,13.41
2022-09-30T09:12:24.928Z,13.66
2022-09-30T09:15:16.435Z,13.73
2022-09-30T09:18:22.645Z,13.66
2022-09-30T09:20:58.492Z,13.82
2022-09-30T09:23:29.244Z,13.87
2022-09-30T09:25:58.975Z,13.89
2022-09-30T09:28:37.474Z,14.06
2022-09-30T09:31:17.241Z,14.21
2022-09-30T09:33:47.362Z,14.28
2022-09-30T09:36:29.235Z,14.38
2022-09-30T09:39:14.557Z,14.52
2022-09-30T09:41:52.594Z,14.49
2022-09-30T09:44:30.721Z,14.21
2022-09-30T09:47:13.939Z,14.35
2022-09-30T09:49:46.167Z,14.49
2022-09-30T09:52:45.937Z,14.54
2022-09-30T09:55:17.330Z,14.69
2022-09-30T09:57:47.732Z,14.64
2022-09-30T10:00:39.790Z,14.82
2022-09-30T10:03:19.686Z,14.78
2022-09-30T10:06:02.264Z,14.82
2022-09-30T10:08:33.751Z,14.90
2022-09-30T10:11:05.574Z,15.02
2022-09-30T10:13:44.387Z,14.99
2022-09-30T10:16:30.867Z,14.99
2022-09-30T10:19:08.633Z,15.20
2022-09-30T10:21:39.329Z,15.36
2022-09-30T10:24:23.238Z,15.28
2022-09-30T10:26:52.953Z,15.18
2022-09-30T10:29:31.971Z,15.37
2022-09-30T10:32:03.113Z,15.31
2022-09-30T10:34:38.967Z,15.45
2022-09-30T10:37:13.806Z,15.34
2022-09-30T10:39:45.741Z,15.48
2022-09-30T10:42:26.521Z,15.49
2022-09-30T10:45:02.151Z,15.69
2022-09-30T10:47:36.939Z,15.60
2022-09-30T10:50:17.176Z,15.71
2022-09-30T10:52:53.659Z,15.70
2022-09-30T10:55:34.008Z,15.92
2022-09-30T10:58:24.167Z,15.82
2022-09-30T11:01:05.868Z,15.79
2022-09-30T11:03:43.267Z,15.89
2022-09-30T11:06:17.813Z,15.75
2022-09-30T11:08:53.919Z,15.86
2022-09-30T11:11:27.570Z,15.94
2022-09-30T11:14:00.145Z,15.88
2022-09-30T11:16:36.229Z,16.12
2022-09-30T11:19:12.603Z,16.18
2022-09-30T11:21:48.894Z,16.28
2022-09-30T11:24:28.647Z,16.50
2022-09-30T11:27:06.002Z,16.46
2022-09-30T11:29:48.856Z,16.58
2022-09-30T11:32:27.748Z,16.74
2022-09-30T11:35:07.372Z,16.64
2022-09-30T11:37:55.277Z,16.66
2022-09-30T11:40:33.828Z,16.55
2022-09-30T11:43:16.009Z,16.64
2022-09-30T11:46:05.091Z,16.63
2022-09-30T11:48:49.986Z,16.66
2022-09-30T11:51:28.559Z,16.70
2022-09-30T11:54:13.909Z,16.72
2022-09-30T11:56:52.115Z,16.74
2022-09-30T11:59:27.501Z,16.76
2022-09-30T12:02:01.249Z,16.86
2022-09-30T12:04:37.305Z,16.73
2022-09-30T12:07:14.093Z,16.75
2022-09-30T12:09:50.743Z,16.62
2022-09-30T12:12:22.281Z,16.77
2022-09-30T12:14:58.195Z,16.98
2022-09-30T12:17:32.637Z,16.86
2022-09-30T12:20:10.068Z,16.85
2022-09-30T12:22:43.965Z,16.89
2022-09-30T12:25:22.865Z,17.06
2022-09-30T12:27:57.829Z,16.87
2022-09-30T12:30:28.442Z,17.11
2022-09-30T12:33:31.034Z,16.81
2022-09-30T12:36:40.092Z,16.88
2022-09-30T12:39:51.405Z,16.97
2022-09-30T12:42:49.384Z,16.82
2022-09-30T12:45:48.937Z,16.95
2022-09-30T12:48:22.600Z,16.98
2022-09-30T12:50:55.167Z,17.00
2022-09-30T12:53:32.067Z,17.04
2022-09-30T12:56:07.068Z,17.23
2022-09-30T12:58:43.965Z,17.38
2022-09-30T13:01:18.334Z,17.19
2022-09-30T13:03:52.666Z,17.21
2022-09-30T13:06:23.845Z,17.08
2022-09-30T13:09:10.519Z,17.31
2022-09-30T13:11:44.958Z,17.48
2022-09-30T13:14:39.583Z,17.39
2022-09-30T13:17:36.613Z,17.22
2022-09-30T13:20:52.390Z,17.30
2022-09-30T13:23:40.237Z,17.23
2022-09-30T13:26:39.083Z,17.44
2022-09-30T13:29:35.679Z,17.65
2022-09-30T13:32:09.414Z,17.84
2022-09-30T13:34:58.417Z,17.75
2022-09-30T13:37:42.456Z,17.45
2022-09-30T13:40:37.861Z,17.25
2022-09-30T13:43:21.228Z,17.03
2022-09-30T13:45:54.649Z,17.03
2022-09-30T13:48:32.332Z,17.13
2022-09-30T13:51:06.457Z,17.20
2022-09-30T13:53:40.428Z,17.14
2022-09-30T13:56:15.884Z,17.03
2022-09-30T13:59:11.015Z,16.97
2022-09-30T14:02:04.538Z,16.97
2022-09-30T14:04:52.594Z,17.02
2022-09-30T14:07:40.102Z,17.09
2022-09-30T14:10:30.970Z,17.14
2022-09-30T14:13:17.231Z,17.09
2022-09-30T14:16:23.634Z,17.31
2022-09-30T14:19:14.049Z,17.22
2022-09-30T14:21:50.295Z,17.33
2022-09-30T14:24:26.440Z,17.17
2022-09-30T14:27:12.868Z,17.33
2022-09-30T14:29:51.540Z,17.36
2022-09-30T14:32:24.050Z,17.37
2022-09-30T14:34:55.227Z,17.22
2022-09-30T14:37:31.165Z,17.31
2022-09-30T14:40:01.760Z,17.31
2022-09-30T14:42:36.106Z,17.28
2022-09-30T14:45:07.980Z,17.30
2022-09-30T14:47:41.418Z,17.37
2022-09-30T14:50:19.680Z,17.09
2022-09-30T14:52:57.148Z,17.10
2022-09-30T14:55:30.718Z,17.06
2022-09-30T14:58:21.734Z,17.03
2022-09-30T15:00:53.793Z,17.00
2022-09-30T15:03:23.689Z,16.85
2022-09-30T15:05:53.743Z,16.87
2022-09-30T15:08:27.041Z,16.86
2022-09-30T15:10:58.693Z,16.94
2022-09-30T15:13:31.916Z,16.98
2022-09-30T15:16:01.892Z,16.92
2022-09-30T15:18:38.041Z,16.87
2022-09-30T15:21:12.612Z,16.65
2022-09-30T15:23:47.953Z,16.59
2022-09-30T15:26:19.154Z,16.59
2022-09-30T15:28:48.975Z,16.31
2022-09-30T15:31:25.325Z,16.61
2022-09-30T15:34:09.811Z,16.65
2022-09-30T15:36:40.423Z,16.66
2022-09-30T15:39:23.197Z,16.54
2022-09-30T15:41:53.993Z,16.43
2022-09-30T15:44:41.936Z,16.53
2022-09-30T15:47:13.062Z,16.49
2022-09-30T15:49:51.270Z,16.51
2022-09-30T15:52:36.393Z,16.44
2022-09-30T15:55:49.653Z,16.63
2022-09-30T15:58:37.885Z,16.59
2022-09-30T16:01:19.771Z,16.61
2022-09-30T16:03:57.092Z,16.48
2022-09-30T16:06:35.217Z,16.41
2022-09-30T16:09:09.878Z,16.54
2022-09-30T16:11:45.617Z,16.44
2022-09-30T16:14:24.123Z,16.34
2022-09-30T16:16:58.330Z,16.32
2022-09-30T16:19:29.516Z,16.31
2022-09-30T16:22:00.592Z,16.19
2022-09-30T16:24:45.170Z,16.21
2022-09-30T16:27:34.048Z,16.06
2022-09-30T16:30:05.058Z,16.02
2022-09-30T16:32:41.223Z,15.81
2022-09-30T16:35:19.199Z,15.79
2022-09-30T16:37:49.623Z,15.77
2022-09-30T16:40:24.735Z,15.89
2022-09-30T16:42:58.748Z,15.54
2022-09-30T16:45:31.016Z,15.84
2022-09-30T16:48:02.931Z,15.69
2022-09-30T16:50:37.773Z,15.63
2022-09-30T16:53:10.636Z,15.48
2022-09-30T16:55:41.513Z,15.21
2022-09-30T16:58:15.915Z,15.52
2022-09-30T17:00:47.078Z,15.46
2022-09-30T17:03:20.115Z,15.43
2022-09-30T17:05:53.392Z,15.37
2022-09-30T17:08:24.709Z,15.08
2022-09-30T17:10:54.529Z,15.14
2022-09-30T17:13:28.710Z,15.23
2022-09-30T17:16:01.895Z,15.20
2022-09-30T17:18:32.793Z,16.76
2022-09-30T17:21:02.853Z,15.84
2022-09-30T17:23:33.709Z,15.50
2022-09-30T17:26:06.918Z,15.14
2022-09-30T17:28:40.897Z,15.27
2022-09-30T17:31:11.519Z,15.23
2022-09-30T17:33:43.733Z,15.19
2022-09-30T17:36:15.330Z,15.17
2022-09-30T17:38:46.300Z,14.93
2022-09-30T17:41:30.084Z,14.89
2022-09-30T17:44:04.391Z,14.95
2022-09-30T17:46:43.825Z,14.66
2022-09-30T17:49:14.085Z,14.65
2022-09-30T17:51:43.861Z,14.60
2022-09-30T17:54:13.607Z,14.56
2022-09-30T17:56:44.529Z,14.55
2022-09-30T17:59:21.540Z,14.58
2022-09-30T18:01:51.661Z,14.47
2022-09-30T18:04:23.366Z,14.47
2022-09-30T18:06:54.318Z,14.44
2022-09-30T18:09:26.678Z,14.44
2022-09-30T18:11:56.377Z,14.38
2022-09-30T18:14:35.306Z,14.30
2022-09-30T18:17:06.112Z,14.23
2022-09-30T18:19:36.242Z,14.21
2022-09-30T18:22:07.028Z,14.23
2022-09-30T18:24:50.255Z,14.16
2022-09-30T18:27:22.682Z,13.98
2022-09-30T18:29:56.403Z,14.01
2022-09-30T18:32:28.340Z,13.41
2022-09-30T18:34:59.516Z,13.88
2022-09-30T18:37:33.305Z,13.93
2022-09-30T18:40:03.557Z,13.59
2022-09-30T18:42:38.157Z,13.75
2022-09-30T18:45:12.653Z,14.12
2022-09-30T18:47:44.072Z,13.81
2022-09-30T18:50:14.592Z,13.57
2022-09-30T18:52:45.324Z,13.60
2022-09-30T18:55:15.050Z,15.21
2022-09-30T18:57:47.920Z,14.16
2022-09-30T19:00:20.829Z,13.85
2022-09-30T19:02:53.890Z,13.67
2022-09-30T19:05:24.774Z,13.61
2022-09-30T19:07:55.940Z,13.22
2022-09-30T19:10:26.329Z,13.49
2022-09-30T19:12:56.132Z,13.39
2022-09-30T19:15:29.545Z,13.25
2022-09-30T19:17:59.954Z,13.22
2022-09-30T19:20:29.892Z,13.22
2022-09-30T19:23:00.321Z,13.20
2022-09-30T19:25:30.153Z,13.13
2022-09-30T19:28:01.857Z,13.14
2022-09-30T19:30:34.496Z,13.12
2022-09-30T19:33:04.280Z,13.09
2022-09-30T19:35:40.302Z,13.09
2022-09-30T19:38:12.300Z,12.94
2022-09-30T19:40:43.464Z,12.90
2022-09-30T19:43:13.217Z,12.82
2022-09-30T19:45:46.640Z,12.88
2022-09-30T19:48:17.460Z,12.93
2022-09-30T19:50:47.189Z,12.91
2022-09-30T19:53:29.346Z,12.89
2022-09-30T19:56:04.807Z,12.70
2022-09-30T19:58:37.318Z,12.82
2022-09-30T20:01:10.829Z,12.73
2022-09-30T20:03:41.141Z,12.65
2022-09-30T20:06:14.580Z,12.61
2022-09-30T20:08:46.141Z,12.71
2022-09-30T20:11:17.218Z,12.68
2022-09-30T20:13:47.015Z,12.61
2022-09-30T20:16:18.001Z,12.56
2022-09-30T20:18:47.840Z,12.45
2022-09-30T20:21:19.118Z,12.49
2022-09-30T20:23:50.611Z,12.45
2022-09-30T20:26:20.585Z,12.31
2022-09-30T20:28:50.336Z,12.18
2022-09-30T20:31:22.736Z,11.99
2022-09-30T20:33:57.848Z,12.00
2022-09-30T20:36:29.278Z,11.63
2022-09-30T20:39:00.844Z,11.79
2022-09-30T20:41:35.892Z,11.95
2022-09-30T20:44:06.686Z,11.98
2022-09-30T20:46:40.117Z,11.94
2022-09-30T20:49:10.330Z,11.96
2022-09-30T20:51:41.094Z,11.93
2022-09-30T20:54:12.050Z,12.00
2022-09-30T20:57:05.958Z,11.95
2022-09-30T20:59:33.644Z,11.94
2022-09-30T21:02:07.087Z,11.71
2022-09-30T21:04:36.978Z,11.89
2022-09-30T21:07:06.880Z,11.92
2022-09-30T21:09:37.467Z,11.99
2022-09-30T21:12:12.210Z,12.02
2022-09-30T21:14:45.639Z,12.11
2022-09-30T21:17:18.080Z,12.18
2022-09-30T21:19:48.880Z,12.09
2022-09-30T21:22:18.656Z,12.24
2022-09-30T21:24:49.847Z,12.24
2022-09-30T21:27:20.737Z,12.16
2022-09-30T21:29:50.422Z,12.18
2022-09-30T21:32:23.137Z,12.15
2022-09-30T21:34:53.105Z,12.25
2022-09-30T21:37:23.870Z,12.24
2022-09-30T21:39:53.726Z,12.26
2022-09-30T21:42:24.616Z,12.31
2022-09-30T21:44:54.414Z,12.12
2022-09-30T21:47:27.789Z,12.35
2022-09-30T21:49:58.594Z,12.30
2022-09-30T21:52:32.666Z,12.15
2022-09-30T21:55:03.696Z,12.22
2022-09-30T21:57:33.398Z,12.34
2022-09-30T22:00:03.618Z,12.37
2022-09-30T22:02:46.336Z,12.26
2022-09-30T22:05:20.642Z,12.44
2022-09-30T22:07:50.976Z,12.50
2022-09-30T22:10:20.716Z,12.50
2022-09-30T22:12:51.147Z,12.36
2022-09-30T22:15:20.890Z,12.41
2022-09-30T22:17:53.200Z,12.46
2022-09-30T22:20:23.459Z,12.45
2022-09-30T22:22:53.169Z,12.43
2022-09-30T22:25:24.229Z,12.38
2022-09-30T22:27:54.088Z,12.41
2022-09-30T22:30:23.747Z,12.19
2022-09-30T22:33:16.574Z,12.23
2022-09-30T22:35:58.695Z,12.39
2022-09-30T22:38:28.696Z,12.20
2022-09-30T22:40:59.683Z,12.34
2022-09-30T22:43:29.712Z,12.21
2022-09-30T22:46:06.158Z,12.45
2022-09-30T22:48:38.764Z,12.43
2022-09-30T22:51:09.001Z,12.45
2022-09-30T22:53:38.744Z,12.47
2022-09-30T22:56:08.435Z,12.48
2022-09-30T22:58:38.831Z,12.31
2022-09-30T23:01:08.558Z,12.43
2022-09-30T23:03:42.247Z,12.60
2022-09-30T23:06:11.965Z,12.49
2022-09-30T23:08:45.473Z,12.42
2022-09-30T23:11:17.009Z,12.42
2022-09-30T23:13:46.860Z,12.32
2022-09-30T23:16:17.979Z,12.48
2022-09-30T23:18:50.711Z,12.37
2022-09-30T23:21:21.749Z,12.43
2022-09-30T23:23:51.692Z,12.44
2022-09-30T23:26:25.253Z,12.38
2022-09-30T23:28:58.687Z,12.38
2022-09-30T23:31:28.829Z,12.43
2022-09-30T23:34:03.075Z,12.48
2022-09-30T23:36:35.695Z,12.32
2022-09-30T23:39:09.215Z,12.44
2022-09-30T23:41:38.945Z,12.45
2022-09-30T23:44:09.737Z,12.46
2022-09-30T23:46:59.457Z,12.46
2022-09-30T23:49:35.422Z,12.31
2022-09-30T23:52:10.538Z,12.34
2022-09-30T23:54:42.799Z,12.38
2022-09-30T23:57:13.950Z,12.26
2022-09-30T23:59:43.623Z,12.44
